Time;durP1;ratioP1;P1;durP2;ratioP2;P2;SDS_P1;SDS_P2;PMS_P1;PMS_P2;Temp;Humidity;BMP_temperature;BMP_pressure;BME280_temperature;BME280_humidity;BME280_pressure;Samples;Min_cycle;Max_cycle;Signal;HPM_P1;HPM_P2
2023/05/23 00:01:08;;;;;;;;;;;14.60;99.90;;;;;;5045683;28;20338;-93
2023/05/23 00:03:40;;;;;;;;;;;14.20;99.90;;;;;;5046363;28;19988;-92
2023/05/23 00:06:13;;;;;;;;;;;14.10;99.90;;;;;;5050983;28;19925;-94
2023/05/23 00:08:39;;;;;;;;;;;16.00;99.90;;;;;;5033948;28;20445;-94
2023/05/23 00:11:05;;;;;;;;;;;13.90;99.90;;;;;;5061919;28;19947;-95
2023/05/23 00:13:33;;;;;;;;;;;13.90;99.90;;;;;;5058341;28;20361;-94
2023/05/23 00:16:02;;;;;;;;;;;14.00;99.90;;;;;;5071405;28;19925;-93
2023/05/23 00:18:27;;;;;;;;;;;13.90;99.90;;;;;;5070215;28;19925;-94
2023/05/23 00:20:53;;;;;;;;;;;13.90;99.90;;;;;;5064463;28;19966;-93
2023/05/23 00:23:20;;;;;;;;;;;13.90;99.90;;;;;;5030118;28;19924;-93
2023/05/23 00:25:51;;;;;;;;;;;14.30;99.90;;;;;;5064080;28;20023;-93
2023/05/23 00:28:20;;;;;;;;;;;14.00;99.90;;;;;;5079819;28;19925;-94
2023/05/23 00:30:52;;;;;;;;;;;14.00;99.90;;;;;;5052848;28;19988;-93
2023/05/23 00:33:20;;;;;;;;;;;14.00;99.90;;;;;;5061744;28;19929;-95
2023/05/23 00:35:49;;;;;;;;;;;14.00;99.90;;;;;;5031948;28;19975;-92
2023/05/23 00:38:15;;;;;;;;;;;14.10;99.90;;;;;;5080385;28;19932;-93
2023/05/23 00:40:40;;;;;;;;;;;14.10;99.90;;;;;;5035064;28;20004;-94
2023/05/23 00:43:09;;;;;;;;;;;14.00;99.90;;;;;;5046204;28;19925;-93
2023/05/23 00:45:34;;;;;;;;;;;13.90;99.90;;;;;;5038196;28;20011;-94
2023/05/23 00:48:08;;;;;;;;;;;13.90;99.90;;;;;;5040692;28;19925;-91
2023/05/23 00:50:35;;;;;;;;;;;14.10;99.90;;;;;;5063858;28;19924;-92
2023/05/23 00:53:00;;;;;;;;;;;14.00;99.90;;;;;;5092986;28;19920;-93
2023/05/23 00:55:27;;;;;;;;;;;14.00;99.90;;;;;;5094104;28;19942;-92
2023/05/23 00:57:54;;;;;;;;;;;13.90;99.90;;;;;;5087525;28;19924;-93
2023/05/23 01:00:20;;;;;;;;;;;13.80;99.90;;;;;;5049192;28;19925;-94
2023/05/23 01:02:46;;;;;;;;;;;13.80;99.90;;;;;;5074989;28;19972;-93
2023/05/23 01:05:16;;;;;;;;;;;13.80;99.90;;;;;;5081785;28;19925;-93
2023/05/23 01:07:45;;;;;;;;;;;13.80;99.90;;;;;;5035825;28;20420;-93
2023/05/23 01:10:29;;;;;;;;;;;13.80;99.90;;;;;;5059881;28;19925;-94
2023/05/23 01:13:07;;;;;;;;;;;13.80;99.90;;;;;;5061082;28;19984;-93
2023/05/23 01:15:43;;;;;;;;;;;13.80;99.90;;;;;;5065470;28;19924;-93
2023/05/23 01:18:11;;;;;;;;;;;13.70;99.90;;;;;;5053181;28;19935;-94
2023/05/23 01:20:44;;;;;;;;;;;15.10;99.90;;;;;;5037868;28;19950;-93
2023/05/23 01:23:28;;;;;;;;;;;13.70;99.90;;;;;;5032688;28;19971;-93
2023/05/23 01:26:09;;;;;;;;;;;15.70;99.90;;;;;;5042509;28;20611;-93
2023/05/23 01:28:42;;;;;;;;;;;13.50;99.90;;;;;;5060444;28;19925;-93
2023/05/23 01:31:11;;;;;;;;;;;13.60;99.90;;;;;;5059697;28;20360;-92
2023/05/23 01:33:40;;;;;;;;;;;13.50;99.90;;;;;;5051769;28;19925;-92
2023/05/23 01:36:06;;;;;;;;;;;12.90;99.90;;;;;;5022866;28;19934;-93
2023/05/23 01:38:32;;;;;;;;;;;13.50;99.90;;;;;;5046497;28;19987;-92
2023/05/23 01:40:58;;;;;;;;;;;13.40;99.90;;;;;;5059544;28;19932;-93
2023/05/23 01:43:26;;;;;;;;;;;13.50;99.90;;;;;;5042266;28;19947;-92
2023/05/23 01:45:53;;;;;;;;;;;14.10;99.90;;;;;;5052333;28;19925;-94
2023/05/23 01:48:19;;;;;;;;;;;13.30;99.90;;;;;;5072625;28;19940;-93
2023/05/23 01:50:45;;;;;;;;;;;13.20;99.90;;;;;;5079355;28;19931;-94
2023/05/23 01:53:11;;;;;;;;;;;13.20;99.90;;;;;;5054664;28;19928;-93
2023/05/23 01:55:40;;;;;;;;;;;13.20;99.90;;;;;;5045960;28;19924;-93
2023/05/23 01:58:06;;;;;;;;;;;13.10;99.90;;;;;;5046780;28;19925;-93
2023/05/23 02:00:32;;;;;;;;;;;13.00;99.90;;;;;;5045806;28;19931;-94
2023/05/23 02:03:01;;;;;;;;;;;13.20;99.90;;;;;;5063576;28;19925;-93
2023/05/23 02:05:30;;;;;;;;;;;15.20;99.90;;;;;;5043620;28;19931;-94
2023/05/23 02:07:55;;;;;;;;;;;13.10;99.90;;;;;;5080106;28;19932;-93
2023/05/23 02:10:27;;;;;;;;;;;12.90;99.90;;;;;;5050984;28;19921;-92
2023/05/23 02:12:56;;;;;;;;;;;15.40;99.90;;;;;;5068554;28;19931;-92
2023/05/23 02:15:22;;;;;;;;;;;13.10;99.90;;;;;;5043067;28;19920;-93
2023/05/23 02:17:47;;;;;;;;;;;12.90;99.90;;;;;;5084726;28;19924;-94
2023/05/23 02:20:13;;;;;;;;;;;12.70;99.90;;;;;;5063276;28;19925;-93
2023/05/23 02:22:39;;;;;;;;;;;13.10;99.90;;;;;;5024366;28;19925;-93
2023/05/23 02:25:05;;;;;;;;;;;12.80;99.90;;;;;;5079551;28;19931;-93
2023/05/23 02:27:31;;;;;;;;;;;12.60;99.90;;;;;;5045089;28;20386;-94
2023/05/23 02:29:56;;;;;;;;;;;12.70;99.90;;;;;;5036916;28;19925;-94
2023/05/23 02:32:22;;;;;;;;;;;12.70;99.90;;;;;;5040364;28;19929;-92
2023/05/23 02:34:49;;;;;;;;;;;12.60;99.90;;;;;;5062080;28;19935;-93
2023/05/23 02:37:17;;;;;;;;;;;12.60;99.90;;;;;;5073011;28;19925;-95
2023/05/23 02:39:46;;;;;;;;;;;10.00;99.90;;;;;;5071189;28;20310;-92
2023/05/23 02:42:12;;;;;;;;;;;13.00;99.90;;;;;;5067298;28;19973;-92
2023/05/23 02:44:37;;;;;;;;;;;12.30;99.90;;;;;;5060612;28;19925;-94
2023/05/23 02:47:03;;;;;;;;;;;12.30;99.90;;;;;;5041633;28;20377;-93
2023/05/23 02:49:34;;;;;;;;;;;12.20;99.90;;;;;;5062119;28;20460;-92
2023/05/23 02:52:00;;;;;;;;;;;12.30;99.90;;;;;;5061591;28;19931;-93
2023/05/23 02:54:25;;;;;;;;;;;12.20;99.90;;;;;;5046440;28;19925;-93
2023/05/23 02:56:53;;;;;;;;;;;12.20;99.90;;;;;;5061188;28;19932;-93
2023/05/23 02:59:22;;;;;;;;;;;12.10;99.90;;;;;;5046276;28;20016;-92
2023/05/23 03:01:47;;;;;;;;;;;12.20;99.90;;;;;;5069364;28;19933;-92
2023/05/23 03:04:17;;;;;;;;;;;12.10;99.90;;;;;;5055451;28;19929;-92
2023/05/23 03:06:43;;;;;;;;;;;13.70;99.90;;;;;;5055615;28;19924;-92
2023/05/23 03:09:14;;;;;;;;;;;12.20;99.90;;;;;;5042771;28;19928;-91
2023/05/23 03:11:39;;;;;;;;;;;12.40;99.90;;;;;;5061691;28;19925;-94
2023/05/23 03:14:05;;;;;;;;;;;12.00;99.90;;;;;;5044946;28;19925;-94
2023/05/23 03:16:30;;;;;;;;;;;12.10;99.90;;;;;;5061055;28;19933;-93
2023/05/23 03:18:59;;;;;;;;;;;12.00;99.90;;;;;;5061652;28;19931;-93
2023/05/23 03:21:28;;;;;;;;;;;12.10;99.90;;;;;;5047619;28;19995;-93
2023/05/23 03:23:53;;;;;;;;;;;14.20;99.90;;;;;;5057554;28;20388;-93
2023/05/23 03:26:20;;;;;;;;;;;12.10;99.90;;;;;;5058832;28;19944;-93
2023/05/23 03:28:46;;;;;;;;;;;12.10;99.90;;;;;;5042129;28;19947;-93
2023/05/23 03:31:12;;;;;;;;;;;12.10;99.90;;;;;;5082585;28;19971;-93
2023/05/23 03:33:41;;;;;;;;;;;12.10;99.90;;;;;;5073286;28;19921;-93
2023/05/23 03:36:07;;;;;;;;;;;12.30;99.90;;;;;;5053054;22;20242;-88
2023/05/23 03:38:36;;;;;;;;;;;12.10;99.90;;;;;;5048328;28;19929;-88
2023/05/23 03:41:09;;;;;;;;;;;11.30;99.90;;;;;;5036106;28;19966;-88
2023/05/23 03:43:42;;;;;;;;;;;12.10;99.90;;;;;;5021998;28;19920;-90
2023/05/23 03:46:07;;;;;;;;;;;12.30;99.90;;;;;;5053002;28;19943;-88
2023/05/23 03:48:35;;;;;;;;;;;12.20;99.90;;;;;;5036517;28;20360;-88
2023/05/23 03:51:01;;;;;;;;;;;12.10;99.90;;;;;;5051999;28;19928;-89
2023/05/23 03:53:29;;;;;;;;;;;12.50;99.90;;;;;;5051839;28;19925;-87
2023/05/23 03:55:56;;;;;;;;;;;12.00;99.90;;;;;;5035961;28;19992;-88
2023/05/23 03:58:21;;;;;;;;;;;11.90;99.90;;;;;;5052304;28;19971;-88
2023/05/23 04:00:51;;;;;;;;;;;12.10;99.90;;;;;;5033454;28;20379;-87
2023/05/23 04:03:17;;;;;;;;;;;12.50;99.90;;;;;;5020464;28;20241;-88
2023/05/23 04:05:43;;;;;;;;;;;12.10;99.90;;;;;;5036167;28;19921;-88
2023/05/23 04:08:09;;;;;;;;;;;12.00;99.90;;;;;;5030322;28;19957;-87
2023/05/23 04:10:35;;;;;;;;;;;11.90;99.90;;;;;;5028421;28;20003;-88
2023/05/23 04:13:00;;;;;;;;;;;11.90;99.90;;;;;;5035607;28;19927;-86
2023/05/23 04:15:29;;;;;;;;;;;12.50;99.90;;;;;;5036995;28;19921;-90
2023/05/23 04:17:58;;;;;;;;;;;12.00;99.90;;;;;;5031433;28;19927;-86
2023/05/23 04:20:24;;;;;;;;;;;12.40;99.90;;;;;;5041667;28;19920;-88
2023/05/23 04:22:49;;;;;;;;;;;12.00;99.90;;;;;;5039729;28;19930;-88
2023/05/23 04:25:17;;;;;;;;;;;12.00;99.90;;;;;;5056183;28;19983;-88
2023/05/23 04:27:43;;;;;;;;;;;12.10;99.90;;;;;;5052015;28;19944;-87
2023/05/23 04:30:11;;;;;;;;;;;13.20;99.90;;;;;;5035479;28;20369;-88
2023/05/23 04:32:37;;;;;;;;;;;11.90;99.90;;;;;;5036296;28;19978;-87
2023/05/23 04:35:05;;;;;;;;;;;11.90;99.90;;;;;;5035727;28;19928;-88
2023/05/23 04:37:31;;;;;;;;;;;11.90;99.90;;;;;;5025943;28;19921;-88
2023/05/23 04:40:00;;;;;;;;;;;14.10;99.90;;;;;;5035499;28;20011;-86
2023/05/23 04:42:26;;;;;;;;;;;11.80;99.90;;;;;;5044873;28;20323;-87
2023/05/23 04:44:56;;;;;;;;;;;12.00;99.90;;;;;;5035033;28;20265;-88
2023/05/23 04:47:26;;;;;;;;;;;11.90;99.90;;;;;;5035689;28;19925;-88
2023/05/23 04:49:52;;;;;;;;;;;11.80;99.90;;;;;;5033771;28;19921;-88
2023/05/23 04:52:19;;;;;;;;;;;12.50;99.90;;;;;;5043587;28;19997;-89
2023/05/23 04:55:07;;;;;;;;;;;12.50;99.90;;;;;;5035159;28;19928;-90
2023/05/23 04:57:36;;;;;;;;;;;12.00;99.90;;;;;;5051838;28;20341;-90
2023/05/23 05:00:09;;;;;;;;;;;11.90;99.90;;;;;;5051900;28;20381;-89
2023/05/23 05:02:38;;;;;;;;;;;10.60;99.90;;;;;;5045624;28;20384;-89
2023/05/23 05:05:04;;;;;;;;;;;14.30;99.90;;;;;;5048857;28;20416;-89
2023/05/23 05:07:34;;;;;;;;;;;12.30;99.90;;;;;;5035262;28;20011;-90
2023/05/23 05:10:02;;;;;;;;;;;11.80;99.90;;;;;;5035499;28;19947;-91
2023/05/23 05:12:28;;;;;;;;;;;12.00;99.90;;;;;;5032261;28;19921;-89
2023/05/23 05:14:59;;;;;;;;;;;12.20;99.90;;;;;;5045690;28;20372;-90
2023/05/23 05:17:24;;;;;;;;;;;12.20;99.90;;;;;;5052291;28;19928;-88
2023/05/23 05:19:52;;;;;;;;;;;11.60;99.90;;;;;;5034989;28;19921;-89
2023/05/23 05:22:18;;;;;;;;;;;11.90;99.90;;;;;;5043796;28;19925;-88
2023/05/23 05:24:46;;;;;;;;;;;11.60;99.90;;;;;;5045835;28;20359;-90
2023/05/23 05:27:18;;;;;;;;;;;11.50;99.90;;;;;;5039658;28;19920;-89
2023/05/23 05:29:56;;;;;;;;;;;11.60;99.90;;;;;;5056079;28;19957;-91
2023/05/23 05:32:21;;;;;;;;;;;11.40;99.90;;;;;;5039144;28;20399;-89
2023/05/23 05:34:47;;;;;;;;;;;11.30;99.90;;;;;;5034306;28;19921;-88
2023/05/23 05:37:14;;;;;;;;;;;10.80;99.90;;;;;;5039665;28;19956;-91
2023/05/23 05:39:49;;;;;;;;;;;11.40;99.90;;;;;;5038755;28;19960;-93
2023/05/23 05:42:14;;;;;;;;;;;11.40;99.90;;;;;;5038737;28;19936;-88
2023/05/23 05:44:40;;;;;;;;;;;11.60;99.90;;;;;;5041145;28;19928;-90
2023/05/23 05:47:08;;;;;;;;;;;9.90;99.90;;;;;;5038596;28;19921;-90
2023/05/23 05:49:36;;;;;;;;;;;12.10;99.90;;;;;;5038797;28;19964;-89
2023/05/23 05:52:05;;;;;;;;;;;11.30;99.90;;;;;;5033311;28;20269;-90
2023/05/23 05:54:33;;;;;;;;;;;11.30;99.90;;;;;;5025610;28;19971;-91
2023/05/23 05:56:59;;;;;;;;;;;11.50;99.90;;;;;;5052295;28;19989;-92
2023/05/23 05:59:45;;;;;;;;;;;11.30;99.90;;;;;;5032344;28;19925;-92
2023/05/23 06:02:56;;;;;;;;;;;11.60;99.90;;;;;;5038734;28;19960;-90
2023/05/23 06:08:59;;;;;;;;;;;13.80;99.90;;;;;;5048781;28;20399;-88
2023/05/23 06:11:41;;;;;;;;;;;11.40;99.90;;;;;;5021763;28;19928;-89
2023/05/23 06:14:07;;;;;;;;;;;11.80;99.90;;;;;;5054460;28;19924;-89
2023/05/23 06:16:57;;;;;;;;;;;12.10;99.90;;;;;;5039744;28;19931;-89
2023/05/23 06:20:17;;;;;;;;;;;;;;;;;;;;;
2023/05/23 06:23:21;;;;;;;;;;;;;;;;;;;;;
2023/05/23 06:25:58;;;;;;;;;;;11.50;99.90;;;;;;5007371;28;19925;-88
2023/05/23 06:28:26;;;;;;;;;;;11.30;99.90;;;;;;5034206;28;20532;-92
2023/05/23 06:33:58;;;;;;;;;;;11.40;99.90;;;;;;5053402;28;19920;-91
2023/05/23 06:36:26;;;;;;;;;;;12.00;99.90;;;;;;5037357;28;19943;-91
2023/05/23 06:38:59;;;;;;;;;;;11.50;99.90;;;;;;5021897;28;19927;-89
2023/05/23 06:41:33;;;;;;;;;;;11.40;99.90;;;;;;5035214;28;20011;-89
2023/05/23 06:44:02;;;;;;;;;;;13.50;99.90;;;;;;5032392;28;19920;-89
2023/05/23 06:46:33;;;;;;;;;;;11.40;99.90;;;;;;5049899;28;19968;-88
2023/05/23 06:49:06;;;;;;;;;;;11.40;99.90;;;;;;5036290;28;19920;-88
2023/05/23 06:51:33;;;;;;;;;;;11.70;99.90;;;;;;5034132;28;19936;-89
2023/05/23 06:54:02;;;;;;;;;;;11.60;99.90;;;;;;5033622;28;19931;-88
2023/05/23 06:56:30;;;;;;;;;;;12.70;99.90;;;;;;5032044;28;19921;-89
2023/05/23 06:59:05;;;;;;;;;;;10.80;99.90;;;;;;5033501;28;19921;-90
2023/05/23 07:01:31;;;;;;;;;;;12.10;99.90;;;;;;5036336;28;19921;-88
2023/05/23 07:03:59;;;;;;;;;;;13.10;99.90;;;;;;5055735;28;19928;-89
2023/05/23 07:06:26;;;;;;;;;;;12.10;99.90;;;;;;5024475;28;19928;-90
2023/05/23 07:08:55;;;;;;;;;;;12.20;99.90;;;;;;5054829;28;20529;-89
2023/05/23 07:11:21;;;;;;;;;;;12.10;99.90;;;;;;5035017;28;19920;-87
2023/05/23 07:13:58;;;;;;;;;;;12.50;99.90;;;;;;5052448;28;20051;-91
2023/05/23 07:16:27;;;;;;;;;;;11.90;99.90;;;;;;5038903;28;19973;-90
2023/05/23 07:18:53;;;;;;;;;;;11.90;99.90;;;;;;5035302;28;19925;-92
2023/05/23 07:21:18;;;;;;;;;;;11.80;99.90;;;;;;5050605;28;20000;-88
2023/05/23 07:23:44;;;;;;;;;;;12.20;99.90;;;;;;5029675;28;20042;-88
2023/05/23 07:26:17;;;;;;;;;;;12.10;99.90;;;;;;5031718;28;19970;-92
2023/05/23 07:28:46;;;;;;;;;;;11.70;99.90;;;;;;5036738;28;19940;-87
2023/05/23 07:31:19;;;;;;;;;;;11.70;99.90;;;;;;5047912;28;20763;-88
2023/05/23 07:34:05;;;;;;;;;;;11.70;99.90;;;;;;5028473;28;19964;-90
2023/05/23 07:36:32;;;;;;;;;;;14.30;99.90;;;;;;5013032;28;20625;-87
2023/05/23 07:39:00;;;;;;;;;;;11.70;99.90;;;;;;5027496;28;19971;-87
2023/05/23 07:41:28;;;;;;;;;;;12.30;99.90;;;;;;5025718;28;19927;-88
2023/05/23 07:43:55;;;;;;;;;;;11.70;99.90;;;;;;5029446;28;19920;-88
2023/05/23 07:50:09;;;;;;;;;;;11.80;99.90;;;;;;5029531;28;20284;-89
2023/05/23 07:52:38;;;;;;;;;;;12.30;99.90;;;;;;5033231;28;19921;-89
2023/05/23 07:55:23;;;;;;;;;;;12.10;99.90;;;;;;5027266;28;19929;-87
2023/05/23 07:57:57;;;;;;;;;;;12.30;99.90;;;;;;5024978;28;20265;-89
2023/05/23 08:00:40;;;;;;;;;;;12.10;99.90;;;;;;5027836;28;19921;-87
2023/05/23 08:03:06;;;;;;;;;;;12.50;99.90;;;;;;5018963;28;19943;-88
2023/05/23 08:05:32;;;;;;;;;;;12.50;99.90;;;;;;5033777;28;19921;-88
2023/05/23 08:08:00;;;;;;;;;;;12.50;99.90;;;;;;5038674;28;19966;-91
2023/05/23 08:10:35;;;;;;;;;;;14.10;99.90;;;;;;5033478;28;20012;-89
2023/05/23 08:13:05;;;;;;;;;;;12.40;99.90;;;;;;5029109;28;19978;-88
2023/05/23 08:18:18;;;;;;;;;;;12.50;99.90;;;;;;5051050;28;19948;-89
2023/05/23 08:20:43;;;;;;;;;;;12.50;99.90;;;;;;5044235;28;20005;-91
2023/05/23 08:23:14;;;;;;;;;;;12.50;99.90;;;;;;5028858;28;19932;-87
2023/05/23 08:26:00;;;;;;;;;;;13.20;99.90;;;;;;5014287;28;19932;-90
2023/05/23 08:28:42;;;;;;;;;;;12.70;99.90;;;;;;5024161;28;19921;-91
2023/05/23 08:31:11;;;;;;;;;;;12.90;99.90;;;;;;5031484;28;20008;-88
2023/05/23 08:33:36;;;;;;;;;;;12.70;99.90;;;;;;5032549;28;19921;-87
2023/05/23 08:36:02;;;;;;;;;;;13.40;99.90;;;;;;5031977;28;19928;-89
2023/05/23 08:38:28;;;;;;;;;;;15.40;99.90;;;;;;5032378;28;19928;-87
2023/05/23 08:40:58;;;;;;;;;;;13.10;99.90;;;;;;5030064;28;19944;-86
2023/05/23 08:43:41;;;;;;;;;;;12.90;99.90;;;;;;5047206;28;19921;-89
2023/05/23 08:46:07;;;;;;;;;;;12.80;99.90;;;;;;5030208;28;19925;-87
2023/05/23 08:48:33;;;;;;;;;;;11.60;99.90;;;;;;5034034;28;19939;-87
2023/05/23 08:51:00;;;;;;;;;;;13.10;99.90;;;;;;5038702;28;20354;-86
2023/05/23 08:53:27;;;;;;;;;;;15.10;99.90;;;;;;5033598;28;19971;-87
2023/05/23 08:55:55;;;;;;;;;;;13.50;99.90;;;;;;5050061;28;20321;-86
2023/05/23 08:58:27;;;;;;;;;;;13.50;99.90;;;;;;5033095;28;20030;-86
2023/05/23 09:00:54;;;;;;;;;;;12.10;99.90;;;;;;5054310;28;19996;-87
2023/05/23 09:03:21;;;;;;;;;;;13.50;99.90;;;;;;5051267;28;19943;-87
2023/05/23 09:05:51;;;;;;;;;;;13.50;99.90;;;;;;5037576;28;19943;-87
2023/05/23 09:08:18;;;;;;;;;;;13.40;99.90;;;;;;5038520;28;19991;-86
2023/05/23 09:10:43;;;;;;;;;;;13.50;99.90;;;;;;5055379;28;19920;-87
2023/05/23 09:13:09;;;;;;;;;;;13.60;99.90;;;;;;5053189;28;19978;-87
2023/05/23 09:15:35;;;;;;;;;;;13.80;99.90;;;;;;5038403;28;19966;-86
2023/05/23 09:18:01;;;;;;;;;;;14.00;99.90;;;;;;5037267;28;20350;-86
2023/05/23 09:20:27;;;;;;;;;;;14.10;99.90;;;;;;5029740;28;19921;-87
2023/05/23 09:22:56;;;;;;;;;;;13.70;99.90;;;;;;5035104;28;19921;-87
2023/05/23 09:25:24;;;;;;;;;;;11.80;99.90;;;;;;5053444;28;20003;-88
2023/05/23 09:27:55;;;;;;;;;;;14.00;99.90;;;;;;5037369;28;19931;-88
2023/05/23 09:30:21;;;;;;;;;;;14.30;99.90;;;;;;5046651;28;19921;-86
2023/05/23 09:32:57;;;;;;;;;;;14.40;99.90;;;;;;5046939;28;19920;-87
2023/05/23 09:35:23;;;;;;;;;;;13.90;99.90;;;;;;5045685;28;20349;-85
2023/05/23 09:37:48;;;;;;;;;;;14.10;99.90;;;;;;5037216;28;19928;-88
2023/05/23 09:40:17;;;;;;;;;;;14.20;99.90;;;;;;5064449;28;19929;-84
2023/05/23 09:42:43;;;;;;;;;;;14.50;99.90;;;;;;5051361;28;19920;-86
2023/05/23 09:45:09;;;;;;;;;;;14.50;99.90;;;;;;5036314;28;19921;-88
2023/05/23 09:47:35;;;;;;;;;;;14.40;99.90;;;;;;5021770;28;19924;-87
2023/05/23 09:50:03;;;;;;;;;;;14.30;99.90;;;;;;5020726;28;19928;-87
2023/05/23 09:52:37;;;;;;;;;;;14.80;99.90;;;;;;5054655;28;20292;-86
2023/05/23 09:55:05;;;;;;;;;;;14.30;99.90;;;;;;5053831;28;20230;-86
2023/05/23 09:57:33;;;;;;;;;;;14.20;99.90;;;;;;5042251;28;19975;-85
2023/05/23 10:00:00;;;;;;;;;;;14.10;99.90;;;;;;5039900;28;19921;-87
2023/05/23 10:02:55;;;;;;;;;;;14.00;99.90;;;;;;5051612;28;19920;-87
2023/05/23 10:05:32;;;;;;;;;;;13.90;99.90;;;;;;5039358;28;20284;-86
2023/05/23 10:07:59;;;;;;;;;;;14.00;99.90;;;;;;5043122;28;19921;-87
2023/05/23 10:10:27;;;;;;;;;;;13.90;99.90;;;;;;5054061;28;19924;-86
2023/05/23 10:12:54;;;;;;;;;;;14.20;99.90;;;;;;5053793;28;19928;-88
2023/05/23 10:15:20;;;;;;;;;;;14.40;99.90;;;;;;5032881;28;19921;-87
2023/05/23 10:17:59;;;;;;;;;;;14.40;99.90;;;;;;5037060;28;19936;-86
2023/05/23 10:20:30;;;;;;;;;;;14.60;99.90;;;;;;5048736;28;20329;-86
2023/05/23 10:22:58;;;;;;;;;;;14.50;99.90;;;;;;5037231;28;20348;-85
2023/05/23 10:25:23;;;;;;;;;;;14.40;99.90;;;;;;5051443;28;19935;-87
2023/05/23 10:27:57;;;;;;;;;;;14.40;99.90;;;;;;5035654;28;19924;-85
2023/05/23 10:30:33;;;;;;;;;;;14.50;99.90;;;;;;5053558;28;19928;-86
2023/05/23 10:33:01;;;;;;;;;;;14.40;99.90;;;;;;5034682;28;20361;-91
2023/05/23 10:35:29;;;;;;;;;;;14.60;99.90;;;;;;5051946;28;19921;-90
2023/05/23 10:38:06;;;;;;;;;;;14.60;99.90;;;;;;5036955;28;19921;-88
2023/05/23 10:40:35;;;;;;;;;;;14.50;99.90;;;;;;5034972;28;19932;-86
2023/05/23 10:43:12;;;;;;;;;;;14.50;99.90;;;;;;5036789;28;19927;-88
2023/05/23 10:45:44;;;;;;;;;;;14.70;99.90;;;;;;5041690;28;19927;-87
2023/05/23 10:48:19;;;;;;;;;;;12.10;99.90;;;;;;5027842;28;19928;-87
2023/05/23 10:50:46;;;;;;;;;;;14.60;99.90;;;;;;5051955;28;19924;-87
2023/05/23 10:53:15;;;;;;;;;;;14.80;99.90;;;;;;5051815;28;20418;-89
2023/05/23 10:55:47;;;;;;;;;;;14.10;99.90;;;;;;5029019;28;19983;-86
2023/05/23 10:58:19;;;;;;;;;;;14.60;99.90;;;;;;5035364;28;19924;-86
2023/05/23 11:00:53;;;;;;;;;;;14.90;99.90;;;;;;5049079;28;19929;-85
2023/05/23 11:03:21;;;;;;;;;;;14.80;99.90;;;;;;5052181;28;19999;-88
2023/05/23 11:05:51;;;;;;;;;;;14.80;99.90;;;;;;5036823;28;19976;-88
2023/05/23 11:08:19;;;;;;;;;;;14.70;99.90;;;;;;5032096;28;19971;-88
2023/05/23 11:10:57;;;;;;;;;;;14.50;99.90;;;;;;5019122;28;19931;-85
2023/05/23 11:13:43;;;;;;;;;;;12.60;99.90;;;;;;5051409;28;19921;-89
2023/05/23 11:16:29;;;;;;;;;;;14.10;99.90;;;;;;5033884;28;19931;-89
2023/05/23 11:19:14;;;;;;;;;;;14.60;99.90;;;;;;5030920;28;20280;-87
2023/05/23 11:21:43;;;;;;;;;;;15.30;99.90;;;;;;5031440;28;19932;-87
2023/05/23 11:24:09;;;;;;;;;;;14.60;99.90;;;;;;5029976;28;19925;-88
2023/05/23 11:26:38;;;;;;;;;;;15.20;99.90;;;;;;5076052;28;20015;-88
2023/05/23 11:29:08;;;;;;;;;;;14.70;99.90;;;;;;5032325;28;19921;-86
2023/05/23 11:31:37;;;;;;;;;;;14.40;99.90;;;;;;5034542;28;20007;-87
2023/05/23 11:34:06;;;;;;;;;;;14.50;99.90;;;;;;5047905;28;19943;-86
2023/05/23 11:36:31;;;;;;;;;;;14.60;99.90;;;;;;5031781;28;19925;-86
2023/05/23 11:39:01;;;;;;;;;;;14.80;99.90;;;;;;5032406;28;19933;-87
2023/05/23 11:41:30;;;;;;;;;;;14.90;99.90;;;;;;5030921;28;19951;-87
2023/05/23 11:43:55;;;;;;;;;;;14.70;99.90;;;;;;5033473;28;20361;-87
2023/05/23 11:46:21;;;;;;;;;;;14.50;99.90;;;;;;5033332;28;19935;-87
2023/05/23 11:48:49;;;;;;;;;;;12.40;99.90;;;;;;5028460;28;19971;-87
2023/05/23 11:51:16;;;;;;;;;;;14.60;99.90;;;;;;5045046;28;19978;-88
2023/05/23 11:53:41;;;;;;;;;;;14.80;99.90;;;;;;5044759;28;20514;-87
2023/05/23 11:56:07;;;;;;;;;;;15.00;99.90;;;;;;5032265;28;19974;-87
2023/05/23 11:58:37;;;;;;;;;;;14.90;99.90;;;;;;5030436;28;20024;-87
2023/05/23 12:01:04;;;;;;;;;;;14.80;99.90;;;;;;5030533;28;19947;-86
2023/05/23 12:03:42;;;;;;;;;;;;;;;;;;;;;
2023/05/23 12:06:15;;;;;;;;;;;14.70;99.90;;;;;;5050720;28;20059;-89
2023/05/23 12:08:41;;;;;;;;;;;15.50;99.90;;;;;;5051384;28;19925;-88
2023/05/23 12:11:07;;;;;;;;;;;15.20;99.90;;;;;;5028050;28;20265;-90
2023/05/23 12:13:32;;;;;;;;;;;15.40;99.90;;;;;;5035065;28;19947;-88
2023/05/23 12:16:07;;;;;;;;;;;14.90;99.90;;;;;;5031618;28;19936;-92
2023/05/23 12:18:41;;;;;;;;;;;15.50;99.90;;;;;;5029829;28;19931;-91
2023/05/23 12:21:10;;;;;;;;;;;14.70;99.90;;;;;;5036799;28;19943;-90
2023/05/23 12:23:41;;;;;;;;;;;15.20;99.90;;;;;;5034966;28;19929;-88
2023/05/23 12:26:09;;;;;;;;;;;15.90;99.90;;;;;;5029152;28;20108;-88
2023/05/23 12:28:35;;;;;;;;;;;15.50;99.90;;;;;;5034402;28;19927;-87
2023/05/23 12:31:17;;;;;;;;;;;15.40;99.90;;;;;;5051166;28;19921;-88
2023/05/23 12:33:44;;;;;;;;;;;15.40;99.90;;;;;;5033821;28;19925;-87
2023/05/23 12:36:14;;;;;;;;;;;16.10;99.90;;;;;;5050603;28;19931;-88
2023/05/23 12:38:44;;;;;;;;;;;15.50;99.90;;;;;;5034035;28;19940;-89
2023/05/23 12:41:18;;;;;;;;;;;15.90;99.90;;;;;;5035301;28;19925;-89
2023/05/23 12:44:17;;;;;;;;;;;15.10;99.90;;;;;;5033527;28;19928;-87
2023/05/23 12:46:53;;;;;;;;;;;;;;;;;;;;;
2023/05/23 12:49:25;;;;;;;;;;;14.30;99.90;;;;;;5048041;28;19927;-88
2023/05/23 12:51:53;;;;;;;;;;;15.40;99.90;;;;;;5026557;28;20361;-88
2023/05/23 12:54:19;;;;;;;;;;;15.60;99.90;;;;;;5017544;28;19938;-88
2023/05/23 12:56:48;;;;;;;;;;;15.10;99.90;;;;;;5031436;28;19970;-87
2023/05/23 12:59:16;;;;;;;;;;;14.60;99.90;;;;;;5053819;28;19928;-87
2023/05/23 13:01:42;;;;;;;;;;;15.70;99.90;;;;;;5050561;28;19925;-87
2023/05/23 13:04:07;;;;;;;;;;;15.80;99.90;;;;;;5049968;28;19921;-86
2023/05/23 13:06:33;;;;;;;;;;;16.10;99.90;;;;;;5030863;28;19943;-88
2023/05/23 13:08:59;;;;;;;;;;;16.20;99.90;;;;;;5055356;28;19928;-88
2023/05/23 13:11:27;;;;;;;;;;;16.20;99.90;;;;;;5028000;28;19920;-88
2023/05/23 13:13:53;;;;;;;;;;;16.50;99.90;;;;;;5033387;28;19928;-87
2023/05/23 13:16:21;;;;;;;;;;;16.20;99.90;;;;;;5032349;28;19968;-87
2023/05/23 13:18:49;;;;;;;;;;;16.10;99.90;;;;;;5033745;28;20416;-90
2023/05/23 13:21:17;;;;;;;;;;;16.10;99.90;;;;;;5034268;28;19929;-88
2023/05/23 13:23:48;;;;;;;;;;;15.70;99.90;;;;;;5047395;28;20357;-89
2023/05/23 13:26:18;;;;;;;;;;;15.70;99.90;;;;;;5028492;28;19921;-89
2023/05/23 13:28:44;;;;;;;;;;;15.30;99.90;;;;;;5033417;28;20364;-89
2023/05/23 13:31:10;;;;;;;;;;;15.20;99.90;;;;;;5033603;28;19932;-88
2023/05/23 13:33:36;;;;;;;;;;;15.20;99.90;;;;;;5034061;28;19921;-87
2023/05/23 13:36:04;;;;;;;;;;;15.60;99.90;;;;;;5037462;28;19927;-88
2023/05/23 13:38:31;;;;;;;;;;;15.30;99.90;;;;;;5030524;28;19925;-88
2023/05/23 13:40:59;;;;;;;;;;;15.30;99.90;;;;;;5017018;28;19921;-87
2023/05/23 13:43:25;;;;;;;;;;;15.30;99.90;;;;;;5036667;28;20015;-89
2023/05/23 13:46:00;;;;;;;;;;;15.30;99.90;;;;;;5052300;28;20020;-91
2023/05/23 13:51:28;;;;;;;;;;;15.50;99.90;;;;;;5033020;28;19927;-91
2023/05/23 13:53:54;;;;;;;;;;;15.20;99.90;;;;;;5021242;28;19920;-90
2023/05/23 13:56:31;;;;;;;;;;;15.60;99.90;;;;;;5038564;28;19967;-89
2023/05/23 13:58:59;;;;;;;;;;;15.10;99.90;;;;;;5013898;28;19932;-88
2023/05/23 14:01:37;;;;;;;;;;;15.20;99.90;;;;;;5014463;28;19925;-91
2023/05/23 14:04:02;;;;;;;;;;;15.70;99.90;;;;;;5034949;28;20256;-91
2023/05/23 14:06:28;;;;;;;;;;;15.70;99.90;;;;;;5034113;28;19921;-89
2023/05/23 14:08:59;;;;;;;;;;;15.60;99.90;;;;;;5030432;28;20052;-90
2023/05/23 14:11:27;;;;;;;;;;;15.40;99.90;;;;;;5045558;28;19966;-88
2023/05/23 14:14:06;;;;;;;;;;;;;;;;;;;;;
2023/05/23 14:16:37;;;;;;;;;;;13.20;98.30;;;;;;5048428;28;19974;-89
2023/05/23 14:19:03;;;;;;;;;;;15.90;99.90;;;;;;5033577;28;19921;-89
2023/05/23 14:21:29;;;;;;;;;;;15.80;99.90;;;;;;5018040;28;19921;-88
2023/05/23 14:23:54;;;;;;;;;;;15.40;99.90;;;;;;5035302;28;19927;-88
2023/05/23 14:26:27;;;;;;;;;;;15.20;99.90;;;;;;5047408;28;20332;-88
2023/05/23 14:28:53;;;;;;;;;;;15.20;99.90;;;;;;5048510;28;20644;-87
2023/05/23 14:31:20;;;;;;;;;;;15.20;99.90;;;;;;5054833;28;19936;-88
2023/05/23 14:33:46;;;;;;;;;;;15.40;99.90;;;;;;5035019;28;19972;-91
2023/05/23 14:36:12;;;;;;;;;;;15.70;99.90;;;;;;5029911;28;19921;-87
2023/05/23 14:38:38;;;;;;;;;;;15.70;99.90;;;;;;5037688;28;19921;-88
2023/05/23 14:41:04;;;;;;;;;;;15.90;99.90;;;;;;5053951;28;19928;-88
2023/05/23 14:43:30;;;;;;;;;;;16.00;98.90;;;;;;5042911;28;19924;-88
2023/05/23 14:45:56;;;;;;;;;;;15.90;99.40;;;;;;5036918;28;19932;-90
2023/05/23 14:48:21;;;;;;;;;;;16.10;99.90;;;;;;5044232;28;19980;-91
2023/05/23 14:51:00;;;;;;;;;;;;;;;;;;;;;
2023/05/23 14:53:30;;;;;;;;;;;16.10;99.90;;;;;;5048235;28;19927;-86